Time;durP1;ratioP1;P1;durP2;ratioP2;P2;SDS_P1;SDS_P2;PMS_P1;PMS_P2;Temp;Humidity;BMP_temperature;BMP_pressure;BME280_temperature;BME280_humidity;BME280_pressure;Samples;Min_cycle;Max_cycle;Signal;HPM_P1;HPM_P2
2022/04/12 00:00:57;;;;;;;;;5.00;5.00;;;;;16.54;52.05;100203.56;5018882;28;45466;-66
2022/04/12 00:03:23;;;;;;;;;4.00;4.00;;;;;16.44;52.18;100195.03;5018890;28;45546;-66
2022/04/12 00:05:48;;;;;;;;;3.00;3.00;;;;;16.39;52.24;100192.91;5002169;28;47779;-67
2022/04/12 00:08:14;;;;;;;;;3.00;3.00;;;;;16.51;52.09;100201.25;5013396;28;45660;-67
2022/04/12 00:10:40;;;;;;;;;5.00;4.00;;;;;16.47;52.21;100194.63;5017045;28;45336;-66
2022/04/12 00:13:06;;;;;;;;;3.00;3.00;;;;;16.44;52.33;100192.34;5016793;28;45558;-66
2022/04/12 00:15:31;;;;;;;;;3.33;3.33;;;;;16.45;52.50;100201.22;5016196;28;48078;-65
2022/04/12 00:20:43;;;;;;;;;5.00;5.00;;;;;16.45;52.14;100211.97;5018610;28;45326;-66
2022/04/12 00:23:08;;;;;;;;;3.67;2.67;;;;;16.47;52.05;100200.00;5017188;28;45259;-65
2022/04/12 00:25:34;;;;;;;;;7.00;5.00;;;;;16.48;52.16;100201.66;5017922;28;47300;-66
2022/04/12 00:28:00;;;;;;;;;3.33;3.33;;;;;16.43;52.43;100209.47;5018281;28;45385;-66
2022/04/12 00:30:27;;;;;;;;;4.33;4.33;;;;;16.01;52.48;100137.94;5018264;28;45305;-66
2022/04/12 00:32:52;;;;;;;;;5.00;3.67;;;;;16.40;52.51;100213.34;5018574;28;45577;-66
2022/04/12 00:35:20;;;;;;;;;4.00;4.00;;;;;16.31;52.47;100205.66;5013069;28;46608;-66
2022/04/12 00:37:46;;;;;;;;;4.00;4.00;;;;;16.31;52.68;100211.84;4997982;28;45472;-67
2022/04/12 00:40:13;;;;;;;;;3.67;3.00;;;;;16.23;53.15;100197.75;5013678;28;45267;-65
2022/04/12 00:42:39;;;;;;;;;4.33;4.33;;;;;16.17;52.95;100193.16;5013734;28;45278;-66
2022/04/12 00:45:05;;;;;;;;;3.67;2.00;;;;;16.15;53.14;100195.19;5006170;28;46036;-66
2022/04/12 00:47:30;;;;;;;;;4.00;4.00;;;;;16.16;53.31;100186.13;5017667;28;45381;-66
2022/04/12 00:49:56;;;;;;;;;6.33;5.00;;;;;16.11;53.28;100184.03;5016212;28;45592;-65
2022/04/12 00:52:22;;;;;;;;;5.33;5.00;;;;;16.06;53.49;100181.94;5018109;28;45367;-66
2022/04/12 00:54:49;;;;;;;;;3.67;3.67;;;;;16.03;53.67;100174.28;5017578;28;45472;-66
2022/04/12 00:57:15;;;;;;;;;5.33;5.00;;;;;15.95;53.87;100174.41;5017840;28;45397;-66
2022/04/12 00:59:43;;;;;;;;;5.00;4.67;;;;;15.92;54.13;100177.47;5017806;28;45242;-66
2022/04/12 01:02:09;;;;;;;;;4.00;2.00;;;;;15.93;54.02;100175.63;5018111;28;45241;-67
2022/04/12 01:04:34;;;;;;;;;4.00;4.00;;;;;15.79;54.19;100164.75;5017422;28;45451;-66
2022/04/12 01:07:00;;;;;;;;;3.00;3.00;;;;;15.48;54.42;100116.00;5017620;28;45597;-66
2022/04/12 01:09:27;;;;;;;;;3.00;3.00;;;;;15.80;54.38;100174.47;5017671;28;45415;-66
2022/04/12 01:11:54;;;;;;;;;5.00;4.00;;;;;15.71;54.47;100159.53;5017985;28;45301;-66
2022/04/12 01:14:20;;;;;;;;;3.00;3.00;;;;;15.56;54.61;100134.63;5017194;28;46524;-65
2022/04/12 01:16:46;;;;;;;;;6.00;4.33;;;;;15.64;54.69;100155.97;5017273;28;45339;-66
2022/04/12 01:19:11;;;;;;;;;7.33;4.67;;;;;15.25;55.18;100108.16;5017347;28;45268;-65
2022/04/12 01:21:52;;;;;;;;;3.67;2.67;;;;;15.52;55.37;100168.19;5017791;28;45178;-66
2022/04/12 01:24:18;;;;;;;;;5.00;3.33;;;;;15.17;55.39;100121.63;5017226;28;46485;-66
2022/04/12 01:26:44;;;;;;;;;6.33;5.33;;;;;15.40;55.68;100167.84;5017481;28;45748;-66
2022/04/12 01:29:09;;;;;;;;;5.00;5.00;;;;;15.43;55.37;100172.00;5017566;28;45263;-66
2022/04/12 01:31:35;;;;;;;;;3.00;3.00;;;;;15.40;55.52;100175.88;5017311;28;45186;-66
2022/04/12 01:34:00;;;;;;;;;4.00;1.00;;;;;14.86;55.58;100085.25;5016580;28;46772;-66
2022/04/12 01:36:26;;;;;;;;;4.00;3.00;;;;;15.45;55.23;100173.47;5017145;28;45335;-66
2022/04/12 01:38:51;;;;;;;;;4.00;4.00;;;;;15.41;55.45;100166.81;5017076;28;45283;-66
2022/04/12 01:41:17;;;;;;;;;6.33;5.00;;;;;15.25;55.30;100139.47;5017565;28;45274;-66
2022/04/12 01:43:42;;;;;;;;;7.00;5.00;;;;;15.36;55.61;100173.75;5016797;28;46676;-66
2022/04/12 01:46:07;;;;;;;;;4.00;4.00;;;;;14.90;55.41;100099.94;5015820;28;45488;-66
2022/04/12 01:48:33;;;;;;;;;4.00;4.00;;;;;14.93;55.30;100113.94;5010130;28;45352;-67
2022/04/12 01:50:58;;;;;;;;;3.33;3.33;;;;;14.87;55.47;100112.84;4997624;28;45596;-66
2022/04/12 01:53:24;;;;;;;;;5.33;3.67;;;;;15.34;55.73;100192.72;4997159;28;46512;-66
2022/04/12 01:55:49;;;;;;;;;4.33;4.00;;;;;15.28;55.45;100181.94;5015367;28;45305;-66
2022/04/12 01:58:15;;;;;;;;;5.00;4.00;;;;;15.35;55.35;100191.69;5016975;28;45392;-66
2022/04/12 02:00:42;;;;;;;;;4.67;3.67;;;;;15.00;55.40;100131.72;5016009;28;45630;-66
2022/04/12 02:03:08;;;;;;;;;3.00;3.00;;;;;15.30;55.18;100170.00;5016802;28;46820;-66
2022/04/12 02:05:34;;;;;;;;;4.67;3.00;;;;;15.33;55.40;100180.34;5016281;28;45482;-66
2022/04/12 02:07:59;;;;;;;;;3.00;3.00;;;;;15.31;55.44;100182.38;5017099;28;45562;-66
2022/04/12 02:10:24;;;;;;;;;3.00;3.00;;;;;15.07;55.65;100143.38;5015608;28;45254;-67
2022/04/12 02:12:50;;;;;;;;;6.00;5.00;;;;;15.20;55.70;100164.94;5016394;28;46732;-67
2022/04/12 02:15:16;;;;;;;;;7.00;5.00;;;;;15.27;55.80;100173.06;5016572;28;45238;-66
2022/04/12 02:17:42;;;;;;;;;4.67;3.33;;;;;15.24;55.31;100172.63;5016680;28;45242;-67
2022/04/12 02:20:08;;;;;;;;;5.00;4.00;;;;;14.81;55.74;100106.38;5016870;28;45238;-66
2022/04/12 02:22:34;;;;;;;;;4.00;4.00;;;;;15.13;55.92;100163.19;5016397;28;46964;-66
2022/04/12 02:25:00;;;;;;;;;4.00;4.00;;;;;15.07;55.78;100138.03;5011444;28;45683;-66
2022/04/12 02:27:25;;;;;;;;;4.33;4.33;;;;;14.80;55.94;100095.88;5014980;28;45519;-66
2022/04/12 02:29:51;;;;;;;;;7.00;4.33;;;;;15.14;55.87;100163.00;5016631;28;45297;-66
2022/04/12 02:32:16;;;;;;;;;5.33;3.67;;;;;15.15;55.75;100166.53;5016636;28;46652;-66
2022/04/12 02:34:41;;;;;;;;;3.33;3.33;;;;;15.08;55.80;100154.91;5017576;28;45559;-67
2022/04/12 02:37:07;;;;;;;;;4.67;4.67;;;;;15.09;56.04;100172.63;5020225;28;45435;-66
2022/04/12 02:39:32;;;;;;;;;5.00;4.00;;;;;14.78;56.26;100133.53;5020252;28;45443;-67
2022/04/12 02:41:58;;;;;;;;;7.00;5.00;;;;;14.76;56.20;100130.22;5019384;28;46424;-67
2022/04/12 02:44:23;;;;;;;;;4.33;4.33;;;;;15.04;56.20;100170.53;5019632;28;45535;-66
2022/04/12 02:46:48;;;;;;;;;3.00;3.00;;;;;15.08;55.80;100176.31;5020108;28;45786;-67
2022/04/12 02:49:14;;;;;;;;;4.67;4.67;;;;;15.04;55.98;100177.72;5020155;28;45226;-67
2022/04/12 02:51:39;;;;;;;;;5.33;4.00;;;;;15.03;55.73;100181.41;5019784;28;46705;-66
2022/04/12 02:54:05;;;;;;;;;5.00;5.00;;;;;15.02;55.55;100175.25;5019505;28;45245;-66
2022/04/12 02:56:30;;;;;;;;;2.67;2.67;;;;;15.04;55.08;100159.81;5018365;28;45651;-67
2022/04/12 02:58:55;;;;;;;;;5.00;5.00;;;;;15.07;54.76;100172.00;5018817;28;45278;-66
2022/04/12 03:01:21;;;;;;;;;7.00;5.00;;;;;15.04;55.20;100169.69;5019728;28;46628;-66
2022/04/12 03:03:47;;;;;;;;;4.00;4.00;;;;;15.06;55.30;100173.00;5019383;28;45436;-66
2022/04/12 03:06:12;;;;;;;;;4.00;4.00;;;;;14.99;55.21;100150.66;5019705;28;45506;-66
2022/04/12 03:08:38;;;;;;;;;3.00;3.00;;;;;15.04;54.96;100162.50;5019892;28;45602;-65
2022/04/12 03:11:03;;;;;;;;;4.00;4.00;;;;;14.71;55.18;100097.84;5014497;28;48393;-66
2022/04/12 03:13:29;;;;;;;;;6.67;5.00;;;;;14.99;55.80;100135.44;5011593;28;45758;-66
2022/04/12 03:15:55;;;;;;;;;4.00;4.00;;;;;14.96;55.46;100134.97;5019566;28;45325;-66
2022/04/12 03:18:20;;;;;;;;;5.00;4.00;;;;;14.95;55.05;100133.31;5018267;28;46406;-66
2022/04/12 03:20:46;;;;;;;;;4.00;4.00;;;;;14.90;55.35;100125.84;5019413;28;45586;-66
2022/04/12 03:23:12;;;;;;;;;2.67;2.00;;;;;14.90;55.26;100142.75;5019121;28;45276;-66
2022/04/12 03:25:38;;;;;;;;;8.33;4.33;;;;;14.85;55.06;100131.78;5017885;28;45380;-67
2022/04/12 03:28:04;;;;;;;;;4.00;4.00;;;;;14.89;55.42;100134.91;5019867;28;45472;-66
2022/04/12 03:30:30;;;;;;;;;5.33;5.33;;;;;14.86;55.03;100135.28;5019027;28;45584;-66
2022/04/12 03:32:55;;;;;;;;;4.00;3.33;;;;;14.84;54.63;100142.69;5018834;28;45525;-66
2022/04/12 03:35:21;;;;;;;;;6.00;5.67;;;;;14.41;54.54;100078.25;5019403;28;45316;-66
2022/04/12 03:37:47;;;;;;;;;3.67;3.67;;;;;14.71;54.71;100127.25;5019342;28;45466;-65
2022/04/12 03:40:13;;;;;;;;;3.67;2.33;;;;;14.75;54.33;100141.94;5018924;28;45824;-66
2022/04/12 03:42:39;;;;;;;;;4.67;2.33;;;;;14.48;54.45;100116.66;5018443;28;45292;-67
2022/04/12 03:45:05;;;;;;;;;2.00;2.00;;;;;14.52;54.83;100135.84;5019353;28;46546;-66
2022/04/12 03:47:30;;;;;;;;;5.00;4.00;;;;;14.70;53.94;100157.72;5019127;28;45529;-66
2022/04/12 03:49:56;;;;;;;;;4.67;3.67;;;;;14.71;53.88;100159.38;5017531;28;46025;-66
2022/04/12 03:52:21;;;;;;;;;5.00;5.00;;;;;14.74;53.55;100161.66;5018654;28;45297;-66
2022/04/12 03:54:47;;;;;;;;;8.00;6.00;;;;;14.77;53.53;100157.78;5000783;28;45435;-67
2022/04/12 03:57:13;;;;;;;;;3.67;3.67;;;;;14.72;53.32;100163.72;5019085;28;45573;-66
2022/04/12 03:59:38;;;;;;;;;5.00;3.00;;;;;14.27;53.45;100082.59;5018825;28;45472;-66
2022/04/12 04:02:04;;;;;;;;;2.67;2.67;;;;;14.37;53.03;100097.53;5017135;28;45498;-66
2022/04/12 04:04:29;;;;;;;;;3.67;3.67;;;;;14.64;52.84;100141.56;5018698;28;45534;-67
2022/04/12 04:06:55;;;;;;;;;3.00;3.00;;;;;14.65;52.92;100152.09;5018817;28;45246;-67
2022/04/12 04:09:21;;;;;;;;;3.00;3.00;;;;;14.63;52.47;100147.94;5013494;28;45938;-66
2022/04/12 04:11:48;;;;;;;;;4.00;2.00;;;;;14.45;52.76;100117.03;5012595;28;45381;-67
2022/04/12 04:14:15;;;;;;;;;5.00;4.00;;;;;14.59;52.96;100144.78;5016772;28;45630;-66
2022/04/12 04:16:41;;;;;;;;;3.67;3.33;;;;;14.65;52.62;100154.78;5016982;28;45183;-65
2022/04/12 04:19:09;;;;;;;;;3.67;3.00;;;;;14.25;52.34;100071.28;5016436;28;48943;-66
2022/04/12 04:21:37;;;;;;;;;2.33;1.67;;;;;14.51;52.44;100131.50;5018317;28;45219;-65
2022/04/12 04:24:03;;;;;;;;;3.33;3.33;;;;;14.51;51.88;100118.13;5018339;28;45491;-66
2022/04/12 04:26:29;;;;;;;;;4.00;4.00;;;;;14.73;51.81;100156.50;5016948;28;45364;-66
2022/04/12 04:28:54;;;;;;;;;5.00;3.00;;;;;14.74;51.99;100158.16;5016350;28;47003;-66
2022/04/12 04:31:20;;;;;;;;;4.67;3.67;;;;;14.72;51.71;100141.47;5018181;28;45470;-66
2022/04/12 04:33:46;;;;;;;;;2.67;2.67;;;;;14.37;51.33;100102.88;5017606;28;45665;-66
2022/04/12 04:36:11;;;;;;;;;3.67;3.67;;;;;14.76;51.65;100150.78;5018423;28;45427;-65
2022/04/12 04:38:37;;;;;;;;;4.33;2.33;;;;;14.83;51.36;100170.44;5017484;28;46393;-66
2022/04/12 04:41:02;;;;;;;;;3.00;3.00;;;;;14.79;51.46;100161.94;5017775;28;45393;-66
2022/04/12 04:43:27;;;;;;;;;4.33;4.00;;;;;14.81;51.07;100170.59;5018015;28;45315;-66
2022/04/12 04:45:53;;;;;;;;;2.00;2.00;;;;;14.71;51.31;100159.38;5018417;28;45285;-68
2022/04/12 04:48:18;;;;;;;;;3.33;3.00;;;;;14.75;51.41;100174.03;5017705;28;45705;-68
2022/04/12 04:50:44;;;;;;;;;2.67;2.67;;;;;14.66;50.99;100171.66;5017715;28;45468;-66
2022/04/12 04:53:10;;;;;;;;;3.00;3.00;;;;;14.61;51.59;100166.81;5017801;28;45540;-66
2022/04/12 04:55:37;;;;;;;;;4.33;3.00;;;;;14.62;51.46;100181.91;5017982;28;45546;-66
2022/04/12 04:58:04;;;;;;;;;4.00;4.00;;;;;14.67;51.60;100184.00;5016515;28;46546;-67
2022/04/12 05:00:31;;;;;;;;;1.33;1.33;;;;;14.60;51.69;100186.56;5017446;28;45278;-66
2022/04/12 05:02:57;;;;;;;;;3.00;3.00;;;;;14.50;51.46;100172.66;5017759;28;45469;-67
2022/04/12 05:05:24;;;;;;;;;2.67;2.67;;;;;14.52;51.73;100176.81;5017748;28;45565;-67
2022/04/12 05:07:52;;;;;;;;;3.00;3.00;;;;;14.46;51.88;100182.06;5017111;28;46862;-65
2022/04/12 05:10:22;;;;;;;;;4.00;4.00;;;;;14.01;52.08;100114.25;5016921;28;45553;-67
2022/04/12 05:12:48;;;;;;;;;3.67;3.67;;;;;14.48;51.89;100198.75;5016976;28;45355;-67
2022/04/12 05:15:14;;;;;;;;;3.00;3.00;;;;;14.11;51.76;100130.88;5017073;28;45484;-67
2022/04/12 05:17:40;;;;;;;;;3.00;3.00;;;;;14.40;51.86;100188.09;5015351;28;47691;-67
2022/04/12 05:20:09;;;;;;;;;3.00;3.00;;;;;14.08;51.91;100147.28;5016598;28;45540;-69
2022/04/12 05:22:35;;;;;;;;;6.33;3.33;;;;;14.31;51.87;100188.19;5017070;28;45394;-67
2022/04/12 05:25:00;;;;;;;;;4.00;3.33;;;;;14.40;52.20;100209.47;5017093;28;45689;-67
2022/04/12 05:27:33;;;;;;;;;7.00;3.67;;;;;14.42;52.07;100207.47;5016831;28;46292;-67
2022/04/12 05:29:59;;;;;;;;;4.67;3.67;;;;;14.41;52.27;100200.44;5016947;28;45510;-67
2022/04/12 05:32:25;;;;;;;;;3.33;3.33;;;;;14.37;52.14;100209.84;5011806;28;45571;-66
2022/04/12 05:34:50;;;;;;;;;3.33;3.33;;;;;14.43;52.17;100203.78;4997675;28;45524;-67
2022/04/12 05:37:15;;;;;;;;;7.00;5.00;;;;;14.38;52.13;100195.47;5010772;28;46994;-67
2022/04/12 05:39:41;;;;;;;;;4.00;3.00;;;;;14.43;52.03;100193.09;5017062;28;45357;-67
2022/04/12 05:42:07;;;;;;;;;4.67;4.00;;;;;14.53;52.00;100207.06;5015798;28;45535;-67
2022/04/12 05:44:35;;;;;;;;;7.33;3.67;;;;;14.50;51.81;100202.91;5017342;28;45376;-68
2022/04/12 05:47:01;;;;;;;;;4.67;4.67;;;;;14.11;51.96;100140.75;5015442;28;46108;-67
2022/04/12 05:49:28;;;;;;;;;7.00;7.00;;;;;14.55;51.97;100213.06;5016918;28;45217;-68
2022/04/12 05:51:54;;;;;;;;;4.67;3.33;;;;;14.52;51.42;100203.53;5017122;28;45257;-67
2022/04/12 05:54:20;;;;;;;;;6.33;3.67;;;;;14.60;51.32;100205.28;5016673;28;45258;-67
2022/04/12 05:56:45;;;;;;;;;4.33;4.33;;;;;14.37;51.33;100167.91;5014902;28;48084;-67
2022/04/12 05:59:14;;;;;;;;;5.67;5.67;;;;;14.65;51.24;100216.31;5015943;28;45548;-67
2022/04/12 06:01:39;;;;;;;;;4.33;3.00;;;;;14.39;51.17;100173.88;5016671;28;45298;-67
2022/04/12 06:04:06;;;;;;;;;7.67;5.00;;;;;14.60;51.21;100213.31;5016429;28;45654;-67
2022/04/12 06:06:32;;;;;;;;;4.33;2.33;;;;;13.94;51.26;100089.28;5016436;28;45376;-67
2022/04/12 06:08:58;;;;;;;;;6.33;3.00;;;;;14.84;51.48;100234.50;5015010;28;45290;-68
2022/04/12 06:11:24;;;;;;;;;4.67;4.00;;;;;14.88;51.07;100233.09;5014805;28;45349;-69
2022/04/12 06:13:49;;;;;;;;;5.33;4.00;;;;;14.94;50.92;100236.88;5015784;28;45613;-71
2022/04/12 06:16:15;;;;;;;;;4.00;4.00;;;;;15.03;50.71;100237.63;5016605;28;45626;-69
2022/04/12 06:18:40;;;;;;;;;4.33;4.00;;;;;15.00;50.40;100211.22;5016195;28;45487;-76
2022/04/12 06:21:06;;;;;;;;;6.67;4.33;;;;;15.24;50.24;100228.84;5014990;28;45254;-67
2022/04/12 06:23:31;;;;;;;;;7.00;4.33;;;;;15.32;49.74;100232.25;5016498;28;45570;-68
2022/04/12 06:25:56;;;;;;;;;4.00;4.00;;;;;15.49;49.95;100249.75;5015013;28;47176;-67
2022/04/12 06:28:22;;;;;;;;;6.00;4.67;;;;;15.45;48.99;100205.63;5014814;28;45469;-67
2022/04/12 06:30:51;;;;;;;;;6.00;6.00;;;;;15.75;48.89;100229.66;5016270;28;45526;-71
2022/04/12 06:33:16;;;;;;;;;7.00;5.33;;;;;16.02;48.46;100242.34;5014982;28;45449;-69
2022/04/12 06:35:41;;;;;;;;;5.00;5.00;;;;;16.21;48.09;100248.06;5016173;28;46450;-68
2022/04/12 06:38:08;;;;;;;;;6.33;6.33;;;;;16.57;47.11;100256.81;5015929;28;45167;-68
2022/04/12 06:40:35;;;;;;;;;6.00;6.00;;;;;16.79;46.12;100263.00;5015738;28;45571;-67
2022/04/12 06:43:01;;;;;;;;;3.33;3.33;;;;;16.82;45.74;100256.41;5016428;28;45357;-68
2022/04/12 06:45:27;;;;;;;;;7.00;7.00;;;;;16.86;45.40;100247.78;5015754;28;46174;-67
2022/04/12 06:47:58;;;;;;;;;5.00;3.67;;;;;17.15;45.33;100278.94;5016117;28;45500;-67
2022/04/12 06:50:25;;;;;;;;;3.67;3.67;;;;;17.39;44.53;100274.09;5015851;28;45229;-67
2022/04/12 06:52:52;;;;;;;;;3.00;2.67;;;;;17.71;44.51;100284.19;5014075;28;45436;-69
2022/04/12 06:55:21;;;;;;;;;5.33;3.67;;;;;18.02;43.32;100288.19;5013626;28;45890;-84
2022/04/12 06:58:10;;;;;;;;;6.33;4.00;;;;;18.30;42.47;100293.44;5010728;28;45644;-75
2022/04/12 07:01:28;;;;;;;;;;;;;;;;;;;;;
2022/04/12 07:03:36;;;;;;;;;7.33;5.00;;;;;17.58;40.63;100112.06;5008566;28;45545;-75
2022/04/12 07:06:08;;;;;;;;;4.67;3.67;;;;;18.09;40.69;100168.84;5012879;28;45550;-76
2022/04/12 07:08:34;;;;;;;;;7.67;5.00;;;;;19.18;40.15;100302.13;5013951;28;45510;-74
2022/04/12 07:11:00;;;;;;;;;4.33;4.00;;;;;18.86;39.06;100234.63;5016016;28;45418;-73
2022/04/12 07:13:26;;;;;;;;;4.00;2.00;;;;;19.51;39.16;100318.22;5016626;28;45261;-75
2022/04/12 07:15:51;;;;;;;;;4.00;4.00;;;;;19.77;38.56;100322.69;5009810;28;48648;-74
2022/04/12 07:18:17;;;;;;;;;4.00;4.00;;;;;20.02;38.09;100337.94;5016248;28;45455;-73
2022/04/12 07:20:42;;;;;;;;;7.00;4.33;;;;;20.07;37.54;100315.72;5017544;28;45483;-76
2022/04/12 07:23:08;;;;;;;;;4.33;3.67;;;;;20.00;37.15;100275.25;5020096;28;45508;-73
2022/04/12 07:25:33;;;;;;;;;6.00;3.00;;;;;20.53;37.00;100328.09;5006395;28;47056;-73
2022/04/12 07:27:59;;;;;;;;;4.00;4.00;;;;;20.83;36.44;100326.41;5020142;28;45452;-75
2022/04/12 07:30:24;;;;;;;;;2.67;2.00;;;;;20.87;35.71;100297.06;5018206;28;45431;-74
2022/04/12 07:32:50;;;;;;;;;2.67;2.00;;;;;21.20;35.36;100327.28;5018237;28;45457;-74
2022/04/12 07:35:15;;;;;;;;;6.00;5.00;;;;;21.24;34.94;100311.50;5014887;28;47508;-74
2022/04/12 07:37:47;;;;;;;;;5.00;4.00;;;;;21.38;34.43;100326.50;5017632;28;45380;-74
2022/04/12 07:40:14;;;;;;;;;5.00;5.00;;;;;21.42;34.12;100332.28;5019515;28;45256;-73
2022/04/12 07:43:21;;;;;;;;;2.67;2.00;;;;;21.63;33.69;100334.56;5019184;28;45214;-75
2022/04/12 07:45:46;;;;;;;;;5.33;3.00;;;;;21.86;33.45;100328.44;4989148;28;46368;-74
2022/04/12 07:48:12;;;;;;;;;5.00;3.67;;;;;22.06;33.61;100323.63;5019332;28;45493;-75
2022/04/12 07:50:39;;;;;;;;;8.33;6.33;;;;;22.24;32.92;100325.47;5017883;28;45463;-73
2022/04/12 07:53:05;;;;;;;;;3.00;3.00;;;;;22.38;32.80;100328.78;5020218;28;45360;-76
2022/04/12 07:55:31;;;;;;;;;4.00;4.00;;;;;22.49;32.61;100333.41;5015557;28;46350;-73
2022/04/12 07:57:56;;;;;;;;;5.00;5.00;;;;;22.70;32.05;100327.44;5017602;28;45200;-73
2022/04/12 08:00:22;;;;;;;;;2.00;2.00;;;;;22.87;32.12;100322.19;5018698;28;45311;-72
2022/04/12 08:02:47;;;;;;;;;3.33;3.33;;;;;23.10;31.62;100294.25;5019426;28;45555;-73
2022/04/12 08:05:12;;;;;;;;;5.00;4.33;;;;;23.49;31.00;100313.53;5019206;28;46163;-73
2022/04/12 08:07:39;;;;;;;;;3.67;3.67;;;;;23.44;30.80;100272.75;5018476;28;45600;-72
2022/04/12 08:10:06;;;;;;;;;4.00;3.00;;;;;23.84;30.52;100276.31;5019543;28;45409;-74
2022/04/12 08:12:55;;;;;;;;;3.00;3.00;;;;;23.94;30.26;100281.91;5020096;28;45510;-75
2022/04/12 08:15:24;;;;;;;;;3.67;2.33;;;;;24.24;29.83;100270.78;5018481;28;46034;-76
2022/04/12 08:17:54;;;;;;;;;3.67;3.00;;;;;24.50;29.63;100274.78;5017837;28;45542;-72
2022/04/12 08:20:23;;;;;;;;;3.33;3.33;;;;;24.64;29.24;100247.28;5013977;28;46255;-76
2022/04/12 08:22:59;;;;;;;;;;;;;;;;;;;;;
2022/04/12 08:26:16;;;;;;;;;5.00;3.67;;;;;25.27;28.40;100300.44;5019589;28;74090;-76
2022/04/12 08:28:41;;;;;;;;;4.67;2.00;;;;;24.52;27.69;100177.50;5012380;28;45582;-73
2022/04/12 08:31:07;;;;;;;;;1.00;1.00;;;;;25.34;28.07;100301.06;5017283;28;45511;-74
2022/04/12 08:33:32;;;;;;;;;3.00;3.00;;;;;25.47;27.66;100279.75;5016437;28;45485;-73
2022/04/12 08:35:57;;;;;;;;;3.00;3.00;;;;;25.70;27.55;100266.97;5018440;28;46182;-72
2022/04/12 08:38:23;;;;;;;;;3.67;3.00;;;;;26.06;27.26;100292.69;5013328;28;45356;-73
2022/04/12 08:40:52;;;;;;;;;3.00;3.00;;;;;26.23;26.64;100301.59;4999002;28;45368;-72
2022/04/12 08:43:21;;;;;;;;;3.00;3.00;;;;;26.23;26.25;100277.06;5003456;28;45515;-73
2022/04/12 08:45:48;;;;;;;;;2.00;2.00;;;;;26.65;26.05;100306.34;5015978;28;45536;-74
2022/04/12 08:48:15;;;;;;;;;3.00;3.00;;;;;26.95;26.04;100295.63;5016759;28;45313;-73
2022/04/12 08:50:41;;;;;;;;;2.33;2.33;;;;;27.25;25.27;100294.22;5016230;28;45318;-72
2022/04/12 08:53:06;;;;;;;;;4.00;4.00;;;;;27.53;24.89;100306.63;5018562;28;45435;-73
2022/04/12 08:55:32;;;;;;;;;4.00;4.00;;;;;27.44;23.97;100261.81;5017914;28;48036;-72
2022/04/12 08:57:58;;;;;;;;;2.00;2.00;;;;;27.66;24.82;100302.63;5017518;28;45515;-79
2022/04/12 09:00:23;;;;;;;;;4.33;4.33;;;;;27.83;24.25;100300.47;5012824;28;45558;-73
2022/04/12 09:02:59;;;;;;;;;1.67;1.00;;;;;27.81;23.94;100275.34;4997103;28;45312;-73
2022/04/12 09:05:25;;;;;;;;;2.00;2.00;;;;;28.05;23.70;100303.84;5007366;28;46056;-74
2022/04/12 09:07:51;;;;;;;;;3.67;3.00;;;;;28.02;23.93;100287.94;5017785;28;45396;-73
2022/04/12 09:10:17;;;;;;;;;1.00;1.00;;;;;28.08;23.38;100305.19;5017658;28;45649;-72
2022/04/12 09:12:43;;;;;;;;;2.00;2.00;;;;;28.09;23.92;100285.81;5018149;28;45370;-72
2022/04/12 09:15:14;;;;;;;;;4.00;3.00;;;;;28.41;22.99;100292.94;5017611;28;45344;-73
2022/04/12 09:17:41;;;;;;;;;1.00;1.00;;;;;28.60;22.55;100205.72;5017910;28;45525;-75
2022/04/12 09:20:17;;;;;;;;;0.00;0.00;;;;;29.47;21.98;100280.25;5016813;28;45996;-71
2022/04/12 09:22:42;;;;;;;;;2.00;2.00;;;;;30.24;21.61;100284.22;5016615;28;45551;-73
2022/04/12 09:25:13;;;;;;;;;1.00;1.00;;;;;31.02;19.81;100278.56;5017815;28;46301;-74
2022/04/12 09:27:40;;;;;;;;;3.00;1.33;;;;;31.74;19.60;100289.59;5016786;28;45385;-71
2022/04/12 09:30:06;;;;;;;;;3.00;3.00;;;;;32.45;18.46;100285.81;5016697;28;45372;-72
2022/04/12 09:32:37;;;;;;;;;4.33;3.33;;;;;33.11;18.19;100275.56;5017707;28;45278;-74
2022/04/12 09:35:03;;;;;;;;;2.00;2.00;;;;;33.83;17.26;100268.25;5017070;28;46203;-73
2022/04/12 09:37:31;;;;;;;;;2.33;2.00;;;;;34.37;17.48;100282.22;5016499;28;45302;-72
2022/04/12 09:39:59;;;;;;;;;2.67;2.67;;;;;34.53;17.05;100275.19;5015837;28;45329;-71
2022/04/12 09:42:51;;;;;;;;;2.00;1.00;;;;;34.60;16.38;100203.75;5017548;28;45419;-69
2022/04/12 09:45:27;;;;;;;;;0.00;0.00;;;;;35.62;16.64;100267.22;5013607;28;45920;-69
2022/04/12 09:47:58;;;;;;;;;3.00;2.00;;;;;35.92;15.28;100266.31;5013475;28;45670;-69
2022/04/12 09:50:25;;;;;;;;;2.33;2.00;;;;;35.97;15.31;100266.16;5013850;28;45567;-69
2022/04/12 09:52:55;;;;;;;;;3.00;2.00;;;;;35.89;15.73;100261.44;5014837;28;45550;-70
2022/04/12 09:55:33;;;;;;;;;5.00;2.67;;;;;35.79;15.21;100256.19;5016448;28;46064;-69
2022/04/12 09:58:01;;;;;;;;;1.00;1.00;;;;;35.72;16.30;100205.28;5015244;28;45487;-69
2022/04/12 10:00:30;;;;;;;;;1.67;1.67;;;;;36.24;15.46;100258.63;5014686;28;45427;-69
2022/04/12 10:02:58;;;;;;;;;1.00;1.00;;;;;36.32;15.16;100266.16;5015447;28;45467;-69
2022/04/12 10:05:25;;;;;;;;;2.33;2.33;;;;;35.87;14.85;100263.72;5015401;28;46182;-70
2022/04/12 10:07:51;;;;;;;;;3.00;1.00;;;;;34.98;15.90;100231.75;5015801;28;45511;-70
2022/04/12 10:10:19;;;;;;;;;4.00;3.00;;;;;34.29;16.53;100227.75;5016074;28;45530;-70
2022/04/12 10:12:46;;;;;;;;;2.00;2.00;;;;;33.68;17.30;100260.34;4995664;28;45640;-70
2022/04/12 10:15:12;;;;;;;;;2.00;2.00;;;;;32.66;18.34;100196.25;5004357;28;46623;-68
2022/04/12 10:17:39;;;;;;;;;3.00;2.00;;;;;31.96;18.88;100212.03;5011914;28;45445;-70
2022/04/12 10:20:06;;;;;;;;;3.00;2.00;;;;;31.50;19.69;100245.66;5001712;28;45604;-70
2022/04/12 10:22:33;;;;;;;;;5.00;1.00;;;;;30.98;20.45;100233.59;5001565;28;45478;-71
2022/04/12 10:25:01;;;;;;;;;2.00;2.00;;;;;29.67;21.37;100176.03;5015499;28;46144;-68
2022/04/12 10:27:27;;;;;;;;;2.00;2.00;;;;;29.45;22.00;100217.53;5015401;28;45477;-69
2022/04/12 10:30:20;;;;;;;;;2.33;2.33;;;;;28.79;23.04;100242.31;5010900;28;45187;-69
2022/04/12 10:32:58;;;;;;;;;4.33;4.33;;;;;27.55;23.45;100126.97;5011577;28;45519;-69
2022/04/12 10:35:23;;;;;;;;;4.67;3.67;;;;;27.32;24.37;100171.97;5011083;28;47546;-69
2022/04/12 10:37:53;;;;;;;;;4.33;2.00;;;;;26.85;25.32;100191.13;5015362;28;45269;-69
2022/04/12 10:40:19;;;;;;;;;4.00;3.33;;;;;26.32;25.78;100182.84;5015984;28;45341;-69
2022/04/12 10:42:45;;;;;;;;;2.67;2.00;;;;;26.23;26.36;100228.00;5015905;28;45494;-71
2022/04/12 10:45:10;;;;;;;;;4.67;2.00;;;;;25.97;26.91;100247.91;5022088;28;46132;-71
2022/04/12 10:47:42;;;;;;;;;3.67;2.00;;;;;25.29;27.66;100217.47;5025042;28;45523;-70
2022/04/12 10:50:10;;;;;;;;;2.00;2.00;;;;;25.22;27.65;100251.38;5008918;28;45601;-70
2022/04/12 10:52:36;;;;;;;;;2.00;2.00;;;;;25.03;28.64;100250.84;5005681;28;45435;-68
2022/04/12 10:55:25;;;;;;;;;1.33;1.33;;;;;25.05;28.77;100254.16;5012670;28;47027;-69
2022/04/12 10:57:53;;;;;;;;;2.00;2.00;;;;;24.61;29.01;100204.25;5018778;28;45499;-70
2022/04/12 11:00:21;;;;;;;;;2.00;2.00;;;;;24.80;28.99;100262.72;5019446;28;45443;-69
2022/04/12 11:02:56;;;;;;;;;2.00;1.67;;;;;23.87;29.52;100183.50;5018242;28;45623;-70
2022/04/12 11:05:33;;;;;;;;;4.33;3.33;;;;;24.13;30.29;100270.84;5019133;28;46796;-70
2022/04/12 11:08:14;;;;;;;;;2.00;2.00;;;;;23.67;30.78;100221.13;5019101;28;45225;-69
2022/04/12 11:10:52;;;;;;;;;2.00;2.00;;;;;23.83;30.84;100271.94;5017844;28;45359;-69
2022/04/12 11:13:21;;;;;;;;;1.00;1.00;;;;;23.79;31.26;100289.75;5018902;28;45492;-69
2022/04/12 11:15:59;;;;;;;;;2.00;2.00;;;;;23.60;31.31;100291.00;5018917;28;46018;-67
2022/04/12 11:18:47;;;;;;;;;4.33;4.00;;;;;23.55;31.55;100304.44;5014434;28;45324;-67
2022/04/12 11:21:14;;;;;;;;;3.67;3.00;;;;;23.56;32.04;100300.66;5018967;28;45331;-68
2022/04/12 11:24:02;;;;;;;;;4.33;3.00;;;;;23.49;31.72;100305.41;5034108;28;45242;-68
2022/04/12 11:26:40;;;;;;;;;3.00;3.00;;;;;23.28;32.05;100291.41;5017416;28;46365;-68
2022/04/12 11:29:08;;;;;;;;;2.67;2.00;;;;;23.23;32.39;100301.31;5018231;28;45237;-67
2022/04/12 11:31:36;;;;;;;;;2.67;2.67;;;;;23.14;32.49;100297.31;5018797;28;45639;-68